createdAt,value
2017-12-22T00:00:27.890Z,99510.77
2017-12-22T00:02:55.390Z,99505.73
2017-12-22T00:05:23.996Z,99505.09
2017-12-22T00:07:51.885Z,99508.08
2017-12-22T00:10:19.480Z,99507.91
2017-12-22T00:12:47.032Z,99495.47
2017-12-22T00:15:14.761Z,99495.78
2017-12-22T00:17:42.364Z,99494.92
2017-12-22T00:20:10.323Z,99494.85
2017-12-22T00:22:37.968Z,99498.87
2017-12-22T00:25:05.490Z,99496.81
2017-12-22T00:27:35.154Z,99491.63
2017-12-22T00:30:03.217Z,99492.33
2017-12-22T00:32:30.781Z,99490.84
2017-12-22T00:35:01.317Z,99492.47
2017-12-22T00:37:30.189Z,99491.80
2017-12-22T00:39:57.753Z,99488.74
2017-12-22T00:42:25.638Z,99487.52
2017-12-22T00:44:53.752Z,99486.48
2017-12-22T00:47:22.237Z,99482.14
2017-12-22T00:49:50.333Z,99483.44
2017-12-22T00:52:18.223Z,99482.73
2017-12-22T00:54:45.781Z,99480.60
2017-12-22T00:57:15.133Z,99478.22
2017-12-22T00:59:43.302Z,99476.34
2017-12-22T01:02:10.864Z,99476.48
2017-12-22T01:04:38.397Z,99465.40
2017-12-22T01:07:06.037Z,99473.48
2017-12-22T01:09:33.815Z,99468.88
2017-12-22T01:12:03.043Z,99472.92
2017-12-22T01:14:31.187Z,99463.16
2017-12-22T01:17:04.453Z,99464.56
2017-12-22T01:19:33.303Z,99459.42
2017-12-22T01:22:01.668Z,99463.54
2017-12-22T01:24:30.154Z,99460.95
2017-12-22T01:26:59.283Z,99461.30
2017-12-22T01:29:28.347Z,99460.64
2017-12-22T01:31:57.250Z,99440.49
2017-12-22T01:34:24.825Z,99458.69
2017-12-22T01:36:52.525Z,99454.23
2017-12-22T01:39:20.300Z,99456.25
2017-12-22T01:41:48.863Z,99457.16
2017-12-22T01:44:16.793Z,99452.72
2017-12-22T01:46:44.348Z,99457.05
2017-12-22T01:49:12.527Z,99456.41
2017-12-22T01:51:40.160Z,99454.25
2017-12-22T01:54:08.680Z,99453.02
2017-12-22T01:56:36.199Z,99454.25
2017-12-22T01:59:05.174Z,99461.39
2017-12-22T02:01:33.792Z,99454.48
2017-12-22T02:04:03.410Z,99453.97
2017-12-22T02:06:33.324Z,99446.98
2017-12-22T02:09:00.948Z,99442.94
2017-12-22T02:11:30.014Z,99441.41
2017-12-22T02:13:57.656Z,99444.13
2017-12-22T02:16:26.658Z,99448.85
2017-12-22T02:18:54.254Z,99423.69
2017-12-22T02:21:22.419Z,99445.16
2017-12-22T02:23:50.002Z,99447.20
2017-12-22T02:26:18.502Z,99443.39
2017-12-22T02:28:46.984Z,99449.11
2017-12-22T02:31:14.588Z,99418.85
2017-12-22T02:33:42.973Z,99446.45
2017-12-22T02:36:11.120Z,99444.61
2017-12-22T02:38:38.668Z,99439.41
2017-12-22T02:41:06.155Z,99435.27
2017-12-22T02:43:35.642Z,99441.75
2017-12-22T02:46:04.848Z,99437.58
2017-12-22T02:48:33.352Z,99432.73
2017-12-22T02:51:01.444Z,99392.66
2017-12-22T02:53:30.212Z,99382.47
2017-12-22T02:55:59.830Z,99383.05
2017-12-22T02:58:28.833Z,99437.53
2017-12-22T03:00:59.044Z,99439.76
2017-12-22T03:03:26.676Z,99429.95
2017-12-22T03:05:55.934Z,99431.48
2017-12-22T03:08:23.546Z,99430.63
2017-12-22T03:10:51.116Z,99428.66
2017-12-22T03:13:19.168Z,99423.20
2017-12-22T03:15:47.534Z,99386.29
2017-12-22T03:18:15.142Z,99410.20
2017-12-22T03:20:42.766Z,99409.20
2017-12-22T03:23:13.244Z,99357.82
2017-12-22T03:25:42.149Z,99402.91
2017-12-22T03:28:09.751Z,99399.63
2017-12-22T03:30:38.324Z,99399.92
2017-12-22T03:33:06.743Z,99401.22
2017-12-22T03:35:35.772Z,99399.77
2017-12-22T03:38:03.381Z,99398.36
2017-12-22T03:40:31.087Z,99396.17
2017-12-22T03:42:59.835Z,99397.14
2017-12-22T03:45:27.432Z,99399.67
2017-12-22T03:47:55.988Z,99398.06
2017-12-22T03:50:23.585Z,99389.19
2017-12-22T03:52:51.383Z,99394.02
2017-12-22T03:55:19.490Z,99396.40
2017-12-22T03:57:48.080Z,99388.63
2017-12-22T04:00:16.029Z,99385.73
2017-12-22T04:02:45.291Z,99385.41
2017-12-22T04:05:12.892Z,99383.43
2017-12-22T04:07:41.173Z,99384.02
2017-12-22T04:10:09.264Z,99368.72
2017-12-22T04:12:37.820Z,99367.38
2017-12-22T04:15:06.220Z,99378.30
2017-12-22T04:17:34.343Z,99374.92
2017-12-22T04:20:02.932Z,99369.49
2017-12-22T04:22:30.567Z,99375.28
2017-12-22T04:24:58.075Z,99378.00
2017-12-22T04:27:27.846Z,99366.63
2017-12-22T04:29:55.830Z,99374.66
2017-12-22T04:32:24.198Z,99371.77
2017-12-22T04:34:51.834Z,99376.00
2017-12-22T04:37:19.421Z,99379.20
2017-12-22T04:39:47.000Z,99377.59
2017-12-22T04:42:14.720Z,99375.41
2017-12-22T04:44:43.127Z,99280.53
2017-12-22T04:47:12.999Z,99375.17
2017-12-22T04:49:41.333Z,99366.92
2017-12-22T17:18:57.336Z,99397.78
2017-12-22T17:21:26.532Z,99397.61
2017-12-22T17:23:57.453Z,99388.43
2017-12-22T17:26:26.410Z,99394.84
2017-12-22T17:28:58.727Z,99402.31
2017-12-22T17:31:27.024Z,99403.48
2017-12-22T17:33:54.641Z,99412.73
2017-12-22T17:36:23.182Z,99414.30
2017-12-22T17:38:53.738Z,99410.72
2017-12-22T17:41:21.355Z,99411.23
2017-12-22T17:43:50.617Z,99409.33
2017-12-22T17:46:25.665Z,99415.73
2017-12-22T17:48:54.425Z,99414.07
2017-12-22T17:51:22.843Z,99416.23
2017-12-22T17:53:50.496Z,99413.45
2017-12-22T17:56:24.462Z,99420.45
2017-12-22T17:58:54.000Z,99422.76
2017-12-22T18:01:22.621Z,99429.55
2017-12-22T18:03:50.121Z,99427.25
2017-12-22T18:06:18.401Z,99419.11
2017-12-22T18:08:52.446Z,99431.07
2017-12-22T18:11:31.366Z,99428.53
2017-12-22T18:14:12.184Z,99396.50
2017-12-22T18:16:51.885Z,99440.51
2017-12-22T18:19:21.701Z,99429.45
2017-12-22T18:22:01.261Z,99438.80
2017-12-22T18:24:33.897Z,99429.15
2017-12-22T18:27:08.702Z,99431.35
2017-12-22T18:29:36.929Z,99435.67
2017-12-22T18:32:05.397Z,99441.42
2017-12-22T18:34:37.124Z,99438.76
2017-12-22T18:37:08.832Z,99448.47
2017-12-22T18:39:38.087Z,99451.27
2017-12-22T18:42:06.876Z,99448.25
2017-12-22T18:44:35.045Z,99449.98
2017-12-22T18:47:04.350Z,99453.14
2017-12-22T18:49:42.080Z,99449.15
2017-12-22T18:52:11.018Z,99457.75
2017-12-22T18:54:47.859Z,99462.76
2017-12-22T18:57:16.854Z,99456.99
2017-12-22T18:59:47.305Z,99455.02
2017-12-22T19:02:24.395Z,99459.01
2017-12-22T19:04:52.024Z,99459.67
2017-12-22T19:07:19.738Z,99460.41
2017-12-22T19:09:49.180Z,99456.27
2017-12-22T19:12:17.396Z,99461.43
2017-12-22T19:14:45.388Z,99469.89
2017-12-22T19:17:16.708Z,99476.89
2017-12-22T19:19:46.416Z,99487.01
2017-12-22T19:22:15.359Z,99484.95
2017-12-22T19:24:42.901Z,99480.82
2017-12-22T19:27:10.480Z,99479.72
2017-12-22T19:29:38.983Z,99485.31
2017-12-22T19:32:06.971Z,99484.94
2017-12-22T19:34:36.429Z,99487.80
2017-12-22T19:37:04.776Z,99484.47
2017-12-22T19:39:32.549Z,99490.31
2017-12-22T19:42:00.154Z,99484.77
2017-12-22T19:44:27.800Z,99486.08
2017-12-22T19:46:55.445Z,99481.96
2017-12-22T19:49:22.971Z,99497.66
2017-12-22T19:51:50.564Z,99491.01
2017-12-22T19:54:19.121Z,99497.05
2017-12-22T19:58:24.248Z,99481.50
2017-12-22T20:00:52.314Z,99481.13
2017-12-22T20:03:28.201Z,99480.00
2017-12-22T20:05:55.963Z,99480.09
2017-12-22T20:08:24.311Z,99476.59
2017-12-22T20:10:52.520Z,99469.02
2017-12-22T20:13:21.695Z,99476.25
2017-12-22T20:15:49.742Z,99473.07
2017-12-22T20:18:17.540Z,99471.93
2017-12-22T20:20:47.096Z,99475.78
2017-12-22T20:23:15.113Z,99477.82
2017-12-22T20:25:42.861Z,99475.48
2017-12-22T20:28:12.736Z,99487.28
2017-12-22T20:30:40.292Z,99488.38
2017-12-22T20:33:08.800Z,99485.34
2017-12-22T20:35:36.496Z,99493.98
2017-12-22T20:38:04.134Z,99495.97
2017-12-22T20:40:32.310Z,99501.39
2017-12-22T20:42:59.897Z,99499.59
2017-12-22T20:45:27.910Z,99466.36
2017-12-22T20:47:55.886Z,99514.55
2017-12-22T20:50:24.173Z,99508.58
2017-12-22T20:52:51.718Z,99515.78
2017-12-22T20:55:19.300Z,99515.72
2017-12-22T20:57:47.322Z,99518.23
2017-12-22T21:00:15.053Z,99513.97
2017-12-22T21:02:42.782Z,99515.61
2017-12-22T21:05:10.863Z,99516.01
2017-12-22T21:07:39.566Z,99518.84
2017-12-22T21:10:08.267Z,99520.33
2017-12-22T21:12:36.345Z,99518.16
2017-12-22T21:15:04.752Z,99516.47
2017-12-22T21:17:32.522Z,99524.98
2017-12-22T21:20:00.610Z,99479.22
2017-12-22T21:22:28.154Z,99529.11
2017-12-22T21:24:55.836Z,99525.44
2017-12-22T21:27:24.402Z,99529.63
2017-12-22T21:29:53.241Z,99536.81
2017-12-22T21:32:20.768Z,99539.38
2017-12-22T21:34:48.777Z,99546.85
2017-12-22T21:37:17.759Z,99542.10
2017-12-22T21:39:46.481Z,99545.22
2017-12-22T21:42:14.150Z,99546.95
2017-12-22T21:44:41.734Z,99540.66
2017-12-22T21:47:09.568Z,99516.53
2017-12-22T21:49:37.427Z,99555.64
2017-12-22T21:52:05.300Z,99553.19
2017-12-22T21:54:32.905Z,99549.66
2017-12-22T21:57:01.348Z,99552.37
2017-12-22T21:59:28.862Z,99544.72
2017-12-22T22:01:56.657Z,99543.42
2017-12-22T22:04:24.562Z,99539.58
2017-12-22T22:06:53.170Z,99548.21
2017-12-22T22:09:22.406Z,99541.36
2017-12-22T22:11:55.751Z,99536.69
2017-12-22T22:14:24.199Z,99534.77
2017-12-22T22:16:52.914Z,99538.86
2017-12-22T22:19:20.732Z,99533.07
2017-12-22T22:21:52.942Z,99537.11
2017-12-22T22:24:20.659Z,99534.13
2017-12-22T22:26:49.075Z,99538.63
2017-12-22T22:29:18.042Z,99537.61
2017-12-22T22:31:45.681Z,99538.42
2017-12-22T22:34:13.483Z,99544.64
2017-12-22T22:36:41.810Z,99547.38
2017-12-22T22:39:10.856Z,99546.75
2017-12-22T22:41:39.355Z,99541.07
2017-12-22T22:44:07.214Z,99546.73
2017-12-22T22:46:36.091Z,99533.15
2017-12-22T22:49:03.831Z,99552.86
2017-12-22T22:51:31.604Z,99553.88
2017-12-22T22:53:59.253Z,99555.06
2017-12-22T22:56:26.813Z,99554.49
2017-12-22T22:58:54.411Z,99555.72
2017-12-22T23:01:22.043Z,99578.42
2017-12-22T23:03:50.021Z,99548.07
2017-12-22T23:06:19.608Z,99549.71
2017-12-22T23:08:47.982Z,99535.84
2017-12-22T23:11:18.129Z,99559.33
2017-12-22T23:13:45.670Z,99563.12
2017-12-22T23:16:13.347Z,99566.62
2017-12-22T23:18:40.887Z,99568.48
2017-12-22T23:21:08.430Z,99573.63
2017-12-22T23:23:37.051Z,99578.14
2017-12-22T23:26:04.891Z,99576.27
2017-12-22T23:28:32.480Z,99578.05
2017-12-22T23:31:00.055Z,99570.14
2017-12-22T23:33:27.667Z,99565.13
2017-12-22T23:35:55.288Z,99567.09
2017-12-22T23:38:23.084Z,99559.81
2017-12-22T23:40:51.137Z,99542.39
2017-12-22T23:43:21.197Z,99556.69
2017-12-22T23:45:52.863Z,99531.34
2017-12-22T23:48:21.538Z,99550.18
2017-12-22T23:50:50.172Z,99546.56
2017-12-22T23:53:17.935Z,99544.62
2017-12-22T23:55:46.275Z,99539.62
2017-12-22T23:58:15.358Z,99545.39
